Time;durP1;ratioP1;P1;durP2;ratioP2;P2;SDS_P1;SDS_P2;PMS_P1;PMS_P2;Temp;Humidity;BMP_temperature;BMP_pressure;BME280_temperature;BME280_humidity;BME280_pressure;Samples;Min_cycle;Max_cycle;Signal;HPM_P1;HPM_P2
2023/04/02 00:00:59;;;;;;;14.07;1.63;;;8.40;99.90;;;;;;5000285;28;20038;-59
2023/04/02 00:03:52;;;;;;;3.85;1.50;;;8.40;99.90;;;;;;4997916;28;20034;-59
2023/04/02 00:06:33;;;;;;;1.60;1.27;;;8.40;99.90;;;;;;4997709;28;20044;-59
2023/04/02 00:09:01;;;;;;;1.88;1.20;;;8.40;99.90;;;;;;4997192;28;20022;-59
2023/04/02 00:11:34;;;;;;;4.80;1.60;;;8.40;99.90;;;;;;5000202;28;20057;-59
2023/04/02 00:14:01;;;;;;;2.53;1.67;;;8.40;99.90;;;;;;4999251;28;20129;-60
2023/04/02 00:16:28;;;;;;;2.50;1.73;;;8.40;99.90;;;;;;5001700;28;20018;-58
2023/04/02 00:19:00;;;;;;;1.95;1.67;;;8.40;99.90;;;;;;4998913;28;20073;-59
2023/04/02 00:21:34;;;;;;;3.58;1.85;;;8.40;99.90;;;;;;4996107;28;20022;-60
2023/04/02 00:24:09;;;;;;;3.85;1.92;;;8.40;99.90;;;;;;5000595;28;20037;-59
2023/04/02 00:26:39;;;;;;;2.10;1.90;;;8.40;99.90;;;;;;4998896;28;20057;-60
2023/04/02 00:29:06;;;;;;;3.72;1.92;;;8.40;99.90;;;;;;4996730;28;20030;-58
2023/04/02 00:31:33;;;;;;;2.17;1.98;;;8.40;99.90;;;;;;4999520;28;20042;-59
2023/04/02 00:34:01;;;;;;;3.53;1.77;;;8.40;99.90;;;;;;4994836;28;20514;-60
2023/04/02 00:36:33;;;;;;;2.22;1.60;;;8.40;99.90;;;;;;4997960;28;20050;-60
2023/04/02 00:39:00;;;;;;;1.70;1.27;;;8.40;99.90;;;;;;4999044;28;20411;-58
2023/04/02 00:41:29;;;;;;;1.67;1.10;;;8.30;99.90;;;;;;5001708;28;20054;-58
2023/04/02 00:43:56;;;;;;;1.67;1.20;;;8.30;99.90;;;;;;4996719;28;20029;-59
2023/04/02 00:46:31;;;;;;;2.25;1.40;;;8.20;99.90;;;;;;4996693;28;20104;-60
2023/04/02 00:49:13;;;;;;;1.95;1.63;;;8.30;99.90;;;;;;4996480;28;20033;-58
2023/04/02 00:51:46;;;;;;;2.80;1.63;;;8.30;99.90;;;;;;4999927;28;20045;-59
2023/04/02 00:54:17;;;;;;;2.47;1.90;;;8.30;99.90;;;;;;4997271;28;20495;-60
2023/04/02 00:56:45;;;;;;;2.10;1.90;;;8.30;99.90;;;;;;4996545;28;20713;-59
2023/04/02 00:59:34;;;;;;;2.20;2.00;;;8.30;99.90;;;;;;4996752;28;20026;-58
2023/04/02 01:02:25;;;;;;;1.90;1.80;;;8.30;99.90;;;;;;4997661;28;20029;-58
2023/04/02 01:04:59;;;;;;;2.60;2.30;;;8.30;99.90;;;;;;5000189;28;20029;-59
2023/04/02 01:08:00;;;;;;;2.83;2.10;;;8.30;99.90;;;;;;4997179;28;20046;-59
2023/04/02 01:10:41;;;;;;;4.40;2.30;;;8.30;99.90;;;;;;4998086;28;20531;-59
2023/04/02 01:13:38;;;;;;;2.58;2.08;;;8.40;99.90;;;;;;4997778;28;20121;-60
2023/04/02 01:16:37;;;;;;;2.58;2.30;;;8.40;99.90;;;;;;4998117;28;20038;-59
2023/04/02 01:19:09;;;;;;;5.60;3.42;;;8.40;99.90;;;;;;4994083;28;20148;-59
2023/04/02 01:21:51;;;;;;;6.88;3.28;;;8.40;99.90;;;;;;4999660;28;20040;-59
2023/04/02 01:24:18;;;;;;;4.63;3.22;;;8.40;99.90;;;;;;5000282;28;20037;-58
2023/04/02 01:27:15;;;;;;;7.32;4.22;;;8.40;99.90;;;;;;4997785;28;20407;-59
2023/04/02 01:29:48;;;;;;;7.18;3.97;;;8.40;99.90;;;;;;4998772;28;20041;-59
2023/04/02 01:32:17;;;;;;;3.83;3.10;;;8.40;99.90;;;;;;4997277;28;20060;-59
2023/04/02 01:34:46;;;;;;;6.63;3.10;;;8.40;99.90;;;;;;4996948;28;20029;-58
2023/04/02 01:37:48;;;;;;;4.90;2.78;;;8.40;99.90;;;;;;4998748;28;20030;-58
2023/04/02 01:40:17;;;;;;;3.55;2.92;;;8.50;99.90;;;;;;4997650;28;20044;-58
2023/04/02 01:43:02;;;;;;;3.60;3.22;;;8.50;99.90;;;;;;4999246;28;20383;-59
2023/04/02 01:45:28;;;;;;;3.40;2.45;;;8.50;99.90;;;;;;4996689;28;20033;-60
2023/04/02 01:47:55;;;;;;;5.03;2.33;;;8.40;99.90;;;;;;4996266;28;20632;-59
2023/04/02 01:50:31;;;;;;;2.20;1.95;;;8.40;99.90;;;;;;4997959;28;20030;-59
2023/04/02 01:53:00;;;;;;;2.22;2.03;;;8.40;99.90;;;;;;4998227;28;20084;-60
2023/04/02 01:55:51;;;;;;;4.00;1.90;;;8.40;99.90;;;;;;4995810;28;20058;-59
2023/04/02 01:58:22;;;;;;;18.20;3.30;;;8.40;99.90;;;;;;4995419;28;20049;-59
2023/04/02 02:01:00;;;;;;;2.38;2.17;;;8.40;99.90;;;;;;4994899;28;20172;-58
2023/04/02 02:03:27;;;;;;;2.75;2.50;;;8.40;99.90;;;;;;4996884;28;20034;-59
2023/04/02 02:05:54;;;;;;;4.07;2.75;;;8.40;99.90;;;;;;4993054;28;20078;-59
2023/04/02 02:08:36;;;;;;;3.20;2.88;;;8.40;99.90;;;;;;4997688;28;20529;-58
2023/04/02 02:11:02;;;;;;;3.63;3.03;;;8.50;99.90;;;;;;4997092;28;20033;-59
2023/04/02 02:13:28;;;;;;;3.20;2.90;;;8.40;99.90;;;;;;4996300;28;20027;-59
2023/04/02 02:15:57;;;;;;;2.78;2.58;;;8.40;99.90;;;;;;4999288;28;20038;-59
2023/04/02 02:18:24;;;;;;;3.28;2.75;;;8.40;99.90;;;;;;4996813;28;20088;-59
2023/04/02 02:20:51;;;;;;;3.03;2.72;;;8.40;99.90;;;;;;4998900;28;20056;-60
2023/04/02 02:23:19;;;;;;;2.90;2.60;;;8.40;99.90;;;;;;4996895;28;20034;-59
2023/04/02 02:25:46;;;;;;;3.42;2.92;;;8.40;99.90;;;;;;4998890;28;20054;-59
2023/04/02 02:28:26;;;;;;;3.10;2.90;;;8.40;99.90;;;;;;4996893;28;20080;-58
2023/04/02 02:31:28;;;;;;;3.55;2.88;;;8.40;99.90;;;;;;4995449;28;20117;-59
2023/04/02 02:34:01;;;;;;;3.30;2.75;;;8.50;99.90;;;;;;5002498;28;20045;-58
2023/04/02 02:36:38;;;;;;;4.00;2.53;;;8.50;99.90;;;;;;4995801;28;20375;-59
2023/04/02 02:39:15;;;;;;;3.92;3.30;;;8.50;99.90;;;;;;4995885;28;20505;-59
2023/04/02 02:41:48;;;;;;;2.60;2.40;;;8.40;99.90;;;;;;4994377;28;20053;-60
2023/04/02 02:44:21;;;;;;;3.03;2.75;;;8.50;99.90;;;;;;4996443;28;20030;-59
2023/04/02 02:46:55;;;;;;;4.03;3.20;;;8.50;99.90;;;;;;5000091;28;20148;-59
2023/04/02 02:49:29;;;;;;;5.28;3.00;;;8.40;99.90;;;;;;4995966;28;20037;-58
2023/04/02 02:52:08;;;;;;;5.78;2.88;;;8.50;99.90;;;;;;4995305;28;20541;-59
2023/04/02 02:54:37;;;;;;;10.25;4.38;;;8.50;99.90;;;;;;4996165;28;20043;-59
2023/04/02 02:57:07;;;;;;;4.32;3.92;;;8.50;99.90;;;;;;4997178;28;20030;-58
2023/04/02 02:59:33;;;;;;;6.70;4.77;;;8.50;99.90;;;;;;4995741;28;20435;-59
2023/04/02 03:02:01;;;;;;;5.20;4.63;;;8.50;99.90;;;;;;4997699;28;20036;-59
2023/04/02 03:04:29;;;;;;;6.05;5.53;;;8.50;99.90;;;;;;4998879;28;20042;-60
2023/04/02 03:06:56;;;;;;;11.65;6.10;;;8.50;99.90;;;;;;4993633;28;20534;-59
2023/04/02 03:09:32;;;;;;;7.60;5.63;;;8.50;99.90;;;;;;4996809;28;20037;-58
2023/04/02 03:12:11;;;;;;;16.25;6.97;;;8.50;99.90;;;;;;4995098;28;20045;-59
2023/04/02 03:14:47;;;;;;;7.20;6.45;;;8.50;99.90;;;;;;4998203;28;20036;-58
2023/04/02 03:17:37;;;;;;;7.75;7.05;;;8.50;99.90;;;;;;4994377;28;20080;-58
2023/04/02 03:20:16;;;;;;;9.80;7.65;;;8.50;99.90;;;;;;4996541;28;20018;-59
2023/04/02 03:22:55;;;;;;;8.43;7.63;;;8.50;99.90;;;;;;4997665;28;20027;-59
2023/04/02 03:25:20;;;;;;;9.35;7.43;;;8.50;99.90;;;;;;4996364;28;20053;-60
2023/04/02 03:27:50;;;;;;;9.32;6.82;;;8.40;99.90;;;;;;4996939;28;20502;-60
2023/04/02 03:30:36;;;;;;;7.38;5.88;;;8.40;99.90;;;;;;4994913;28;20070;-59
2023/04/02 03:33:25;;;;;;;7.07;6.40;;;8.40;99.90;;;;;;4995719;28;20031;-58
2023/04/02 03:36:13;;;;;;;7.72;7.03;;;8.40;99.90;;;;;;4997852;28;20410;-59
2023/04/02 03:39:00;;;;;;;7.05;6.45;;;8.40;99.90;;;;;;4996446;28;20042;-58
2023/04/02 03:41:37;;;;;;;7.72;7.00;;;8.30;99.90;;;;;;4996601;28;20046;-60
2023/04/02 03:44:14;;;;;;;7.35;6.70;;;8.30;99.90;;;;;;4996691;28;20037;-60
2023/04/02 03:46:45;;;;;;;7.53;6.82;;;8.40;99.90;;;;;;4996171;28;20065;-59
2023/04/02 03:49:18;;;;;;;8.48;7.45;;;8.30;99.90;;;;;;4994111;28;20027;-60
2023/04/02 03:51:57;;;;;;;8.27;7.47;;;8.30;99.90;;;;;;4995853;28;20952;-58
2023/04/02 03:54:23;;;;;;;7.75;6.53;;;8.40;99.90;;;;;;4995093;28;20426;-58
2023/04/02 03:56:51;;;;;;;8.88;6.85;;;8.40;99.90;;;;;;4998504;28;20034;-60
2023/04/02 03:59:30;;;;;;;11.35;6.63;;;8.40;99.90;;;;;;4998453;28;20042;-58
2023/04/02 04:02:15;;;;;;;7.35;6.53;;;8.40;99.90;;;;;;5001202;28;20038;-60
2023/04/02 04:04:43;;;;;;;8.55;6.40;;;8.40;99.90;;;;;;4999743;28;20069;-58
2023/04/02 04:07:21;;;;;;;6.95;6.25;;;8.40;99.90;;;;;;5000038;28;20046;-60
2023/04/02 04:09:49;;;;;;;7.75;7.05;;;8.40;99.90;;;;;;5004773;28;20080;-59
2023/04/02 04:12:35;;;;;;;4.68;3.72;;;8.40;99.90;;;;;;5000601;28;20053;-60
2023/04/02 04:15:24;;;;;;;0.60;0.60;;;8.40;99.90;;;;;;4997949;28;20030;-62
2023/04/02 04:17:53;;;;;;;0.57;0.57;;;8.20;99.90;;;;;;4996818;28;20030;-60
2023/04/02 04:20:23;;;;;;;1.48;0.70;;;8.00;99.90;;;;;;4998403;28;20836;-61
2023/04/02 04:22:54;;;;;;;0.98;0.82;;;7.90;99.90;;;;;;4995082;28;20133;-60
2023/04/02 04:25:28;;;;;;;0.73;0.73;;;7.90;99.90;;;;;;5001563;28;20041;-60
2023/04/02 04:28:12;;;;;;;0.40;0.40;;;7.80;99.90;;;;;;4998080;28;20038;-61
2023/04/02 04:31:07;;;;;;;0.30;0.30;;;7.70;99.90;;;;;;5000213;28;20153;-61
2023/04/02 04:33:42;;;;;;;0.75;0.52;;;7.60;99.90;;;;;;4996059;28;20045;-61
2023/04/02 04:36:27;;;;;;;0.47;0.45;;;7.50;99.90;;;;;;4999219;28;20030;-60
2023/04/02 04:38:58;;;;;;;0.80;0.80;;;7.30;99.90;;;;;;4996830;28;20038;-62
2023/04/02 04:41:28;;;;;;;0.50;0.50;;;7.30;99.90;;;;;;4999323;28;20041;-60
2023/04/02 04:44:16;;;;;;;1.17;0.50;;;7.10;99.90;;;;;;4997573;28;20034;-59
2023/04/02 04:46:47;;;;;;;0.55;0.40;;;7.10;99.90;;;;;;4994979;28;20138;-61
2023/04/02 04:49:34;;;;;;;1.27;0.40;;;7.00;99.90;;;;;;5000146;28;20498;-59
2023/04/02 04:52:16;;;;;;;0.75;0.40;;;7.00;99.90;;;;;;4999532;28;20025;-62
2023/04/02 04:54:44;;;;;;;0.52;0.45;;;6.90;99.90;;;;;;4999477;28;20097;-60
2023/04/02 04:57:40;;;;;;;1.17;0.90;;;6.90;99.90;;;;;;4998385;28;20030;-62
2023/04/02 05:00:19;;;;;;;2.45;0.93;;;6.80;99.90;;;;;;5002317;28;20106;-61
2023/04/02 05:03:12;;;;;;;1.52;0.80;;;6.80;99.90;;;;;;5000249;28;20494;-62
2023/04/02 05:05:39;;;;;;;9.23;6.13;;;6.70;99.90;;;;;;4998331;28;20064;-61
2023/04/02 05:08:15;;;;;;;2.92;1.02;;;6.70;99.90;;;;;;4996967;28;20497;-59
2023/04/02 05:10:50;;;;;;;0.70;0.60;;;6.60;99.90;;;;;;4999454;28;20030;-60
2023/04/02 05:13:33;;;;;;;0.98;0.60;;;6.60;99.90;;;;;;4998809;28;20031;-60
2023/04/02 05:16:24;;;;;;;0.52;0.50;;;6.60;99.90;;;;;;4996233;28;20037;-59
2023/04/02 05:18:53;;;;;;;0.50;0.50;;;6.50;99.90;;;;;;4993145;28;20105;-60
2023/04/02 05:21:43;;;;;;;1.75;1.48;;;6.40;99.90;;;;;;4996543;28;20034;-60
2023/04/02 05:24:32;;;;;;;0.77;0.70;;;6.30;99.90;;;;;;4996701;28;20124;-61
2023/04/02 05:27:04;;;;;;;1.58;0.75;;;6.30;99.90;;;;;;4998829;28;20115;-61
2023/04/02 05:29:37;;;;;;;1.13;0.85;;;6.20;99.90;;;;;;5001118;28;20111;-60
2023/04/02 05:32:10;;;;;;;0.70;0.70;;;6.20;99.90;;;;;;4999441;28;20030;-59
2023/04/02 05:34:38;;;;;;;1.05;0.70;;;6.20;99.90;;;;;;4995053;28;20561;-62
2023/04/02 05:37:05;;;;;;;5.00;3.10;;;6.20;99.90;;;;;;4998670;28;20371;-59
2023/04/02 05:39:31;;;;;;;13.35;12.15;;;6.20;99.90;;;;;;4997203;28;20038;-61
2023/04/02 05:42:07;;;;;;;28.50;16.88;;;6.20;99.90;;;;;;4996545;28;20039;-61
2023/04/02 05:44:40;;;;;;;2.20;2.00;;;6.20;99.90;;;;;;4995710;28;20034;-60
2023/04/02 05:47:11;;;;;;;1.77;1.58;;;6.20;99.90;;;;;;4996128;28;20081;-59
2023/04/02 05:49:50;;;;;;;2.88;1.75;;;6.20;99.90;;;;;;5000487;28;20022;-61
2023/04/02 05:52:22;;;;;;;3.13;2.83;;;6.20;99.90;;;;;;4999241;28;20026;-61
2023/04/02 05:55:10;;;;;;;6.20;5.55;;;6.30;99.90;;;;;;4998816;28;20032;-61
2023/04/02 05:57:52;;;;;;;3.80;2.80;;;6.30;99.90;;;;;;4996950;28;20121;-60
2023/04/02 06:00:25;;;;;;;14.40;9.55;;;6.30;99.90;;;;;;4995148;28;20045;-61
2023/04/02 06:03:01;;;;;;;31.40;17.58;;;6.20;99.90;;;;;;4998017;28;20033;-61
2023/04/02 06:05:34;;;;;;;4.18;2.85;;;6.10;99.90;;;;;;4992701;28;20026;-61
2023/04/02 06:08:19;;;;;;;9.60;7.20;;;6.10;99.90;;;;;;4997229;28;20025;-61
2023/04/02 06:10:55;;;;;;;5.57;3.92;;;6.00;99.90;;;;;;4994700;28;20030;-61
2023/04/02 06:13:20;;;;;;;18.35;10.15;;;5.80;99.90;;;;;;4993580;28;20041;-62
2023/04/02 06:15:47;;;;;;;32.42;15.00;;;5.80;99.90;;;;;;4995576;28;20034;-60
2023/04/02 06:18:23;;;;;;;42.38;21.33;;;5.70;99.90;;;;;;4996687;28;20034;-62
2023/04/02 06:20:49;;;;;;;131.98;57.47;;;5.60;99.90;;;;;;4995712;28;20743;-60
2023/04/02 06:23:29;;;;;;;8.43;3.17;;;5.60;99.90;;;;;;4998368;28;20024;-61
2023/04/02 06:26:08;;;;;;;15.35;9.25;;;5.60;99.90;;;;;;4994813;28;20525;-60
2023/04/02 06:28:46;;;;;;;43.15;16.08;;;5.60;99.90;;;;;;4998904;28;20050;-61
2023/04/02 06:31:37;;;;;;;4.00;2.03;;;5.50;99.90;;;;;;4992287;28;20085;-61
2023/04/02 06:34:06;;;;;;;4.85;3.00;;;5.50;99.90;;;;;;4994657;28;20136;-60
2023/04/02 06:36:32;;;;;;;11.02;10.32;;;5.40;99.90;;;;;;4995246;28;20027;-61
2023/04/02 06:39:06;;;;;;;3.53;3.30;;;5.40;99.90;;;;;;4995079;28;20538;-60
2023/04/02 06:41:31;;;;;;;3.88;3.58;;;5.40;99.90;;;;;;4996465;28;20491;-61
2023/04/02 06:44:02;;;;;;;1.50;1.10;;;5.30;99.90;;;;;;4994679;28;20034;-61
2023/04/02 06:46:45;;;;;;;2.00;1.70;;;5.20;99.90;;;;;;4995402;28;20552;-60
2023/04/02 06:49:33;;;;;;;2.10;1.40;;;5.20;99.90;;;;;;4995273;28;20031;-61
2023/04/02 06:52:00;;;;;;;2.53;1.25;;;5.10;99.90;;;;;;4995534;28;20069;-60
2023/04/02 06:54:26;;;;;;;0.75;0.70;;;5.10;99.90;;;;;;4997902;28;20399;-60
2023/04/02 06:56:55;;;;;;;1.60;1.50;;;5.10;99.90;;;;;;4992703;28;20033;-60
2023/04/02 06:59:20;;;;;;;27.20;13.95;;;5.10;99.90;;;;;;4995216;28;20390;-60
2023/04/02 07:02:05;;;;;;;9.32;4.63;;;5.10;99.90;;;;;;4995252;28;20041;-60
2023/04/02 07:04:31;;;;;;;1.88;1.17;;;5.10;99.90;;;;;;4998776;28;20050;-61
2023/04/02 07:06:57;;;;;;;2.00;1.52;;;5.10;99.90;;;;;;4998746;28;20061;-61
2023/04/02 07:09:23;;;;;;;4.35;2.65;;;5.00;99.90;;;;;;4998478;28;20504;-61
2023/04/02 07:11:49;;;;;;;2.83;1.42;;;5.00;99.90;;;;;;4994695;28;20034;-61
2023/04/02 07:14:15;;;;;;;1.67;0.93;;;5.00;99.90;;;;;;4997581;28;20026;-61
2023/04/02 07:16:42;;;;;;;1.10;0.80;;;5.00;99.90;;;;;;4995962;28;20053;-60
2023/04/02 07:19:18;;;;;;;0.68;0.60;;;5.00;99.90;;;;;;4994234;28;20041;-60
2023/04/02 07:21:44;;;;;;;1.23;0.70;;;5.00;99.90;;;;;;4997309;28;20029;-62
2023/04/02 07:24:10;;;;;;;1.73;0.73;;;5.00;99.90;;;;;;4997488;28;20030;-61
2023/04/02 07:26:36;;;;;;;1.60;1.05;;;5.00;99.90;;;;;;4994086;28;20034;-61
2023/04/02 07:29:01;;;;;;;2.13;0.88;;;5.00;99.90;;;;;;4998122;28;20104;-60
2023/04/02 07:31:28;;;;;;;0.70;0.70;;;4.90;99.90;;;;;;5001557;28;20525;-61
2023/04/02 07:33:59;;;;;;;1.17;1.00;;;4.90;99.90;;;;;;5000668;28;20200;-61
2023/04/02 07:36:26;;;;;;;11.05;7.35;;;4.90;99.90;;;;;;5001481;28;20132;-61
2023/04/02 07:38:52;;;;;;;2.90;2.60;;;4.90;99.90;;;;;;4998228;28;20038;-60
2023/04/02 07:41:18;;;;;;;4.97;4.57;;;4.90;99.90;;;;;;4998844;28;20023;-62
2023/04/02 07:43:44;;;;;;;6.20;5.70;;;4.90;99.90;;;;;;4998618;28;20036;-62
2023/04/02 07:46:12;;;;;;;1.77;1.27;;;4.90;99.90;;;;;;4998458;28;20391;-60
2023/04/02 07:48:39;;;;;;;4.90;4.50;;;4.90;99.90;;;;;;4999774;28;20043;-60
2023/04/02 07:51:12;;;;;;;3.58;2.70;;;4.90;99.90;;;;;;4999683;28;20554;-60
2023/04/02 07:53:38;;;;;;;5.05;3.13;;;4.90;99.90;;;;;;4997818;28;20096;-60
2023/04/02 07:56:06;;;;;;;2.80;2.22;;;5.00;99.90;;;;;;5000705;28;20116;-62
2023/04/02 07:58:32;;;;;;;2.63;1.20;;;5.00;99.90;;;;;;4999438;28;20030;-60
2023/04/02 08:01:00;;;;;;;0.95;0.82;;;5.10;99.90;;;;;;5001053;28;20972;-61
2023/04/02 08:03:26;;;;;;;2.30;2.10;;;5.10;99.90;;;;;;5001024;28;20030;-60
2023/04/02 08:05:54;;;;;;;1.70;1.25;;;5.10;99.90;;;;;;4995399;28;20097;-60
2023/04/02 08:08:21;;;;;;;2.20;1.70;;;5.10;99.90;;;;;;5001489;28;20034;-59
2023/04/02 08:10:47;;;;;;;1.50;1.25;;;5.10;99.90;;;;;;4998793;28;20170;-59
2023/04/02 08:13:15;;;;;;;1.00;0.82;;;5.10;99.90;;;;;;5001535;28;20036;-61
2023/04/02 08:15:42;;;;;;;1.20;1.02;;;5.10;99.90;;;;;;4998174;28;20240;-60
2023/04/02 08:18:08;;;;;;;1.77;1.25;;;5.10;99.90;;;;;;4999782;28;20049;-59
2023/04/02 08:20:34;;;;;;;3.28;2.28;;;5.20;99.90;;;;;;5000960;28;20035;-61
2023/04/02 08:23:00;;;;;;;1.70;1.60;;;5.20;99.90;;;;;;4998012;28;20173;-61
2023/04/02 08:25:26;;;;;;;2.95;1.35;;;5.30;99.90;;;;;;4998969;28;20858;-60
2023/04/02 08:27:52;;;;;;;1.75;1.15;;;5.40;99.90;;;;;;4999866;28;20034;-61
2023/04/02 08:30:18;;;;;;;2.17;1.58;;;5.40;99.90;;;;;;4997512;28;20561;-61
2023/04/02 08:32:44;;;;;;;5.70;3.17;;;5.50;99.90;;;;;;5000714;28;20037;-60
2023/04/02 08:35:13;;;;;;;3.55;2.47;;;5.40;99.90;;;;;;4999933;28;20038;-59
2023/04/02 08:37:40;;;;;;;0.70;0.70;;;5.50;99.90;;;;;;4999001;28;20030;-61
2023/04/02 08:40:07;;;;;;;1.30;1.20;;;5.50;99.90;;;;;;4996361;28;20037;-61
2023/04/02 08:42:57;;;;;;;2.95;1.95;;;5.60;99.90;;;;;;4996960;28;20026;-61
2023/04/02 08:45:37;;;;;;;4.05;2.72;;;5.60;99.90;;;;;;5001819;28;20071;-59
2023/04/02 08:48:04;;;;;;;2.57;1.83;;;5.70;99.90;;;;;;4999230;28;20026;-60
2023/04/02 08:50:48;;;;;;;0.80;0.80;;;5.80;99.90;;;;;;5001751;28;20022;-60
2023/04/02 08:53:24;;;;;;;0.98;0.80;;;5.90;99.90;;;;;;4997198;28;20642;-59
2023/04/02 08:56:04;;;;;;;0.70;0.63;;;5.90;99.90;;;;;;5001466;28;20023;-61
2023/04/02 08:58:43;;;;;;;1.33;1.17;;;5.90;99.90;;;;;;4997598;28;20598;-60
2023/04/02 09:01:33;;;;;;;2.03;1.73;;;5.90;99.90;;;;;;4997949;28;20041;-60
2023/04/02 09:04:02;;;;;;;1.77;0.93;;;5.90;99.90;;;;;;5000429;28;20022;-61
2023/04/02 09:06:28;;;;;;;0.95;0.70;;;5.90;99.90;;;;;;5001340;28;20085;-61
2023/04/02 09:08:55;;;;;;;0.57;0.57;;;5.80;99.90;;;;;;4999902;28;20032;-62
2023/04/02 09:11:25;;;;;;;0.88;0.80;;;5.70;99.90;;;;;;4997672;28;20034;-60
2023/04/02 09:13:59;;;;;;;0.80;0.80;;;5.60;99.90;;;;;;4998492;28;20113;-59
2023/04/02 09:16:45;;;;;;;1.48;0.90;;;5.60;99.90;;;;;;4997105;28;20073;-59
2023/04/02 09:19:20;;;;;;;1.00;0.90;;;5.60;99.90;;;;;;4983568;28;20085;-61
2023/04/02 09:22:05;;;;;;;0.77;0.77;;;5.60;99.90;;;;;;4998512;28;20439;-61
2023/04/02 09:24:32;;;;;;;1.25;1.15;;;5.60;99.90;;;;;;4999170;28;20018;-59
2023/04/02 09:26:57;;;;;;;0.90;0.90;;;5.70;99.90;;;;;;4995667;28;20026;-59
2023/04/02 09:29:26;;;;;;;1.15;0.82;;;5.60;99.90;;;;;;4995887;28;20030;-59
2023/04/02 09:32:06;;;;;;;1.80;0.88;;;5.60;99.90;;;;;;5003487;28;20728;-60
2023/04/02 09:34:35;;;;;;;1.40;1.20;;;5.50;99.90;;;;;;4996433;28;20394;-59
2023/04/02 09:37:16;;;;;;;1.05;0.95;;;5.50;99.90;;;;;;4997090;28;20041;-59
2023/04/02 09:39:42;;;;;;;2.05;1.80;;;5.60;99.90;;;;;;4993816;28;20030;-60
2023/04/02 09:42:36;;;;;;;1.48;1.15;;;5.60;99.90;;;;;;4997139;28;20494;-61
2023/04/02 09:45:22;;;;;;;0.95;0.80;;;5.60;99.90;;;;;;4998875;28;20543;-60
2023/04/02 09:47:50;;;;;;;4.75;1.60;;;5.60;99.90;;;;;;4997416;28;20049;-60
2023/04/02 09:50:25;;;;;;;1.42;1.08;;;5.50;99.90;;;;;;4999497;28;20026;-59
2023/04/02 09:52:51;;;;;;;2.83;1.67;;;5.50;99.90;;;;;;4999570;28;20030;-61
2023/04/02 09:55:20;;;;;;;2.33;1.25;;;5.40;99.90;;;;;;4994977;28;20034;-61
2023/04/02 09:57:47;;;;;;;1.45;1.25;;;5.40;99.90;;;;;;4997178;28;20034;-60
2023/04/02 10:00:13;;;;;;;4.93;3.88;;;5.50;99.90;;;;;;4997755;28;20057;-60
2023/04/02 10:02:40;;;;;;;2.35;2.03;;;5.50;99.90;;;;;;4998723;28;20434;-59
2023/04/02 10:05:17;;;;;;;7.40;4.65;;;5.60;99.90;;;;;;4998075;28;20023;-60
2023/04/02 10:07:47;;;;;;;12.93;9.15;;;5.70;99.90;;;;;;5000345;28;20044;-61
2023/04/02 10:10:29;;;;;;;1.88;1.30;;;5.80;99.90;;;;;;4997991;28;20036;-61
2023/04/02 10:13:27;;;;;;;2.10;1.60;;;5.90;99.90;;;;;;4996264;28;20458;-60
2023/04/02 10:16:18;;;;;;;2.40;1.63;;;6.10;99.90;;;;;;4997190;28;20027;-60
2023/04/02 10:18:46;;;;;;;3.28;2.17;;;6.40;99.90;;;;;;4994274;28;20034;-60
2023/04/02 10:21:17;;;;;;;8.77;4.00;;;6.50;99.90;;;;;;4996656;28;20087;-60
2023/04/02 10:23:42;;;;;;;1.42;1.30;;;6.60;99.90;;;;;;4998154;28;20057;-60
2023/04/02 10:26:35;;;;;;;1.75;1.38;;;6.60;99.90;;;;;;4997649;28;20072;-59
2023/04/02 10:29:35;;;;;;;5.25;3.53;;;6.70;99.90;;;;;;4994878;28;20034;-60
2023/04/02 10:32:25;;;;;;;13.38;7.72;;;6.80;99.90;;;;;;4997206;28;20651;-60
2023/04/02 10:34:53;;;;;;;10.88;5.63;;;6.80;99.90;;;;;;4996702;28;20022;-62
2023/04/02 10:37:37;;;;;;;2.80;1.90;;;6.70;99.90;;;;;;4996578;28;20064;-61
2023/04/02 10:40:10;;;;;;;1.50;1.40;;;6.60;99.90;;;;;;4991745;28;20030;-59
2023/04/02 10:43:07;;;;;;;1.65;1.00;;;6.50;99.90;;;;;;4996662;28;20034;-61
2023/04/02 10:45:44;;;;;;;1.45;1.10;;;6.40;99.90;;;;;;5004687;28;20086;-61
2023/04/02 10:48:13;;;;;;;1.20;1.00;;;6.40;99.90;;;;;;4998387;28;20087;-60
2023/04/02 10:50:41;;;;;;;0.80;0.80;;;6.50;99.90;;;;;;4996841;28;20030;-61
2023/04/02 10:53:20;;;;;;;1.27;1.02;;;6.70;99.90;;;;;;4995014;28;20477;-59
2023/04/02 10:56:08;;;;;;;1.30;1.20;;;6.80;99.90;;;;;;4995683;28;20029;-60
2023/04/02 10:58:41;;;;;;;3.75;2.70;;;7.00;99.90;;;;;;4995085;28;20046;-60
2023/04/02 11:01:15;;;;;;;2.08;1.23;;;7.00;99.90;;;;;;4990975;28;20031;-60
2023/04/02 11:03:44;;;;;;;1.20;0.90;;;7.10;99.90;;;;;;4996380;28;20030;-60
2023/04/02 11:06:21;;;;;;;1.52;1.20;;;7.20;99.90;;;;;;4994869;28;20030;-58
2023/04/02 11:08:50;;;;;;;1.17;1.02;;;7.10;99.90;;;;;;4999371;28;20037;-59
2023/04/02 11:11:21;;;;;;;2.30;1.30;;;7.00;99.90;;;;;;4995777;28;20023;-59
2023/04/02 11:13:58;;;;;;;1.05;0.95;;;6.90;99.90;;;;;;4996950;28;20027;-61
2023/04/02 11:16:26;;;;;;;2.30;1.60;;;6.80;99.90;;;;;;4995935;28;20046;-59
2023/04/02 11:19:15;;;;;;;2.95;2.20;;;6.80;99.90;;;;;;4996674;28;20066;-60
2023/04/02 11:21:42;;;;;;;2.70;1.85;;;6.70;99.90;;;;;;4996525;28;20023;-59
2023/04/02 11:24:29;;;;;;;2.70;2.30;;;6.70;99.90;;;;;;4995760;28;20541;-61
2023/04/02 11:27:15;;;;;;;2.00;1.70;;;6.60;99.90;;;;;;4996872;28;20072;-60
2023/04/02 11:29:45;;;;;;;2.72;2.22;;;6.60;99.90;;;;;;4998706;28;20096;-60
2023/04/02 11:32:34;;;;;;;2.47;2.20;;;6.60;99.90;;;;;;4995193;28;20019;-59
2023/04/02 11:35:31;;;;;;;2.15;1.80;;;6.40;99.90;;;;;;4996127;28;20026;-60
2023/04/02 11:38:22;;;;;;;1.88;1.70;;;6.40;99.90;;;;;;4997801;28;20048;-60
2023/04/02 11:40:50;;;;;;;1.95;1.73;;;6.30;99.90;;;;;;4997525;28;20034;-58
2023/04/02 11:43:34;;;;;;;1.55;1.45;;;6.10;99.90;;;;;;4998519;28;20031;-60
2023/04/02 11:46:15;;;;;;;1.90;1.52;;;5.90;99.90;;;;;;4995819;28;20034;-59
2023/04/02 11:48:41;;;;;;;1.45;1.20;;;5.80;99.90;;;;;;4997164;28;20034;-60
2023/04/02 11:51:19;;;;;;;4.53;3.78;;;5.90;99.90;;;;;;4997951;28;20429;-62
2023/04/02 11:53:46;;;;;;;2.80;2.22;;;5.80;99.90;;;;;;4996283;28;20497;-58
2023/04/02 11:56:18;;;;;;;2.60;1.90;;;5.80;99.90;;;;;;4996381;28;20505;-60
2023/04/02 11:58:57;;;;;;;3.40;2.40;;;5.80;99.90;;;;;;4995488;28;20046;-59
2023/04/02 12:01:47;;;;;;;4.43;2.65;;;5.70;99.90;;;;;;4997439;28;20043;-61
2023/04/02 12:05:06;;;;;;;3.13;2.70;;;5.70;99.90;;;;;;4996212;28;20084;-59
2023/04/02 12:07:50;;;;;;;2.05;1.85;;;5.60;99.90;;;;;;4978900;28;20041;-61
2023/04/02 12:10:19;;;;;;;1.90;1.70;;;5.50;99.90;;;;;;4990271;28;20030;-60
2023/04/02 12:12:45;;;;;;;3.30;2.50;;;5.50;99.90;;;;;;4993065;28;20085;-60
2023/04/02 12:15:45;;;;;;;2.33;2.10;;;5.40;99.90;;;;;;4999846;28;20033;-60
2023/04/02 12:18:19;;;;;;;1.85;1.48;;;5.40;99.90;;;;;;4996557;28;20042;-60
2023/04/02 12:20:50;;;;;;;6.45;3.20;;;5.30;99.90;;;;;;4998552;28;20435;-59
2023/04/02 12:23:30;;;;;;;2.53;2.03;;;5.30;99.90;;;;;;4998997;28;20030;-59
2023/04/02 12:26:07;;;;;;;3.17;2.42;;;5.20;99.90;;;;;;5000432;28;20509;-60
2023/04/02 12:28:36;;;;;;;1.90;1.70;;;4.90;99.90;;;;;;4999006;28;20038;-61
2023/04/02 12:31:08;;;;;;;2.78;2.45;;;4.80;99.90;;;;;;4998860;28;20045;-60
2023/04/02 12:33:36;;;;;;;5.13;4.05;;;4.70;99.90;;;;;;5001769;28;20418;-60
2023/04/02 12:36:13;;;;;;;3.08;2.58;;;4.70;99.90;;;;;;4998182;28;20578;-61
2023/04/02 12:38:46;;;;;;;3.65;2.97;;;4.70;99.90;;;;;;5002495;28;20968;-60
2023/04/02 12:41:31;;;;;;;6.25;5.10;;;4.60;99.90;;;;;;4998297;28;20025;-59
2023/04/02 12:43:58;;;;;;;3.53;2.78;;;4.60;99.90;;;;;;4995284;28;20034;-58
2023/04/02 12:46:25;;;;;;;2.72;2.53;;;4.50;99.90;;;;;;4998996;28;20034;-60
2023/04/02 12:48:57;;;;;;;2.97;1.75;;;4.50;99.90;;;;;;4995674;28;20574;-60
2023/04/02 12:51:23;;;;;;;2.08;1.75;;;4.60;99.90;;;;;;5000159;28;20030;-59
2023/04/02 12:53:51;;;;;;;1.30;1.20;;;4.70;99.90;;;;;;4999343;28;20046;-59
2023/04/02 12:56:21;;;;;;;1.88;1.50;;;4.80;99.90;;;;;;4998701;28;20141;-59
2023/04/02 12:58:58;;;;;;;8.80;6.90;;;4.90;99.90;;;;;;5001248;28;20029;-58
2023/04/02 13:01:30;;;;;;;1.92;1.42;;;4.90;99.90;;;;;;4993771;28;20038;-59
2023/04/02 13:04:08;;;;;;;1.90;1.67;;;5.00;99.90;;;;;;4995498;28;20031;-60
2023/04/02 13:06:35;;;;;;;2.00;1.70;;;5.00;99.90;;;;;;4998170;28;20105;-60
2023/04/02 13:09:04;;;;;;;1.60;1.50;;;5.00;99.90;;;;;;4998668;28;20442;-59
2023/04/02 13:11:38;;;;;;;2.53;1.80;;;5.00;99.90;;;;;;4996136;28;20045;-59
2023/04/02 13:14:06;;;;;;;2.15;1.77;;;5.00;99.90;;;;;;4999967;28;20049;-58
2023/04/02 13:16:37;;;;;;;2.10;1.67;;;5.00;99.90;;;;;;4998442;28;20029;-58
2023/04/02 13:19:30;;;;;;;2.97;1.80;;;5.00;99.90;;;;;;4999854;28;20080;-59
2023/04/02 13:22:00;;;;;;;1.88;1.60;;;4.90;99.90;;;;;;4998098;28;20038;-59
2023/04/02 13:24:31;;;;;;;2.22;1.90;;;4.90;99.90;;;;;;4997467;28;20110;-61
2023/04/02 13:27:00;;;;;;;3.05;2.63;;;4.90;99.90;;;;;;4996273;28;20122;-60
2023/04/02 13:29:29;;;;;;;3.60;2.10;;;4.90;99.90;;;;;;4994892;28;20030;-60
2023/04/02 13:32:00;;;;;;;2.92;2.25;;;5.00;99.90;;;;;;5001497;28;20498;-59
2023/04/02 13:34:27;;;;;;;2.75;2.55;;;4.90;99.90;;;;;;4997852;28;20049;-60